sensor_id;sensor_type;location;lat;lon;timestamp;pressure;altitude;pressure_sealevel;temperature;humidity
26657;BME280;14279;50.010;8.260;2022-09-09T00:00:16;99934.47;;;17.98;82.75
26657;BME280;14279;50.010;8.260;2022-09-09T00:03:12;99940.69;;;17.97;82.82
26657;BME280;14279;50.010;8.260;2022-09-09T00:08:19;99940.13;;;17.93;81.98
26657;BME280;14279;50.010;8.260;2022-09-09T00:10:54;99931.13;;;17.96;82.52
26657;BME280;14279;50.010;8.260;2022-09-09T00:13:41;99926.97;;;17.93;79.32
26657;BME280;14279;50.010;8.260;2022-09-09T00:16:15;99921.09;;;17.90;81.60
26657;BME280;14279;50.010;8.260;2022-09-09T00:19:06;99925.66;;;17.87;81.41
26657;BME280;14279;50.010;8.260;2022-09-09T00:21:36;99931.31;;;17.83;80.23
26657;BME280;14279;50.010;8.260;2022-09-09T00:24:11;99930.22;;;17.85;82.24
26657;BME280;14279;50.010;8.260;2022-09-09T00:26:48;99932.94;;;17.74;81.63
26657;BME280;14279;50.010;8.260;2022-09-09T00:29:47;99933.03;;;17.72;80.42
26657;BME280;14279;50.010;8.260;2022-09-09T00:32:18;99922.66;;;17.71;80.38
26657;BME280;14279;50.010;8.260;2022-09-09T00:34:57;99926.63;;;17.65;78.81
26657;BME280;14279;50.010;8.260;2022-09-09T00:37:26;99929.88;;;17.57;78.95
26657;BME280;14279;50.010;8.260;2022-09-09T00:39:53;99927.38;;;17.56;78.49
26657;BME280;14279;50.010;8.260;2022-09-09T00:42:27;99929.06;;;17.57;78.75
26657;BME280;14279;50.010;8.260;2022-09-09T00:45:02;99922.50;;;17.51;78.38
26657;BME280;14279;50.010;8.260;2022-09-09T00:47:43;99923.34;;;17.52;79.35
26657;BME280;14279;50.010;8.260;2022-09-09T00:50:35;99913.91;;;17.49;78.44
26657;BME280;14279;50.010;8.260;2022-09-09T00:58:36;99919.81;;;17.09;79.63
26657;BME280;14279;50.010;8.260;2022-09-09T01:01:05;99917.75;;;17.12;80.12
26657;BME280;14279;50.010;8.260;2022-09-09T01:06:32;99926.25;;;16.93;81.08
26657;BME280;14279;50.010;8.260;2022-09-09T01:09:08;99928.78;;;16.95;80.82
26657;BME280;14279;50.010;8.260;2022-09-09T01:12:09;99925.22;;;16.96;79.99
26657;BME280;14279;50.010;8.260;2022-09-09T01:17:12;99923.16;;;17.00;79.53
26657;BME280;14279;50.010;8.260;2022-09-09T01:22:33;99910.38;;;16.95;78.86
26657;BME280;14279;50.010;8.260;2022-09-09T01:27:36;99911.13;;;16.97;78.85
26657;BME280;14279;50.010;8.260;2022-09-09T01:30:09;99908.69;;;17.05;79.21
26657;BME280;14279;50.010;8.260;2022-09-09T01:32:42;99912.41;;;17.03;78.74
26657;BME280;14279;50.010;8.260;2022-09-09T01:35:11;99910.09;;;17.09;78.09
26657;BME280;14279;50.010;8.260;2022-09-09T01:37:40;99914.91;;;17.04;78.58
26657;BME280;14279;50.010;8.260;2022-09-09T01:40:06;99918.97;;;17.08;79.27
26657;BME280;14279;50.010;8.260;2022-09-09T01:42:31;99921.09;;;17.15;79.18
26657;BME280;14279;50.010;8.260;2022-09-09T01:44:57;99925.06;;;17.09;78.84
26657;BME280;14279;50.010;8.260;2022-09-09T01:47:22;99914.03;;;17.15;79.21
26657;BME280;14279;50.010;8.260;2022-09-09T01:49:47;99921.44;;;17.21;78.85
26657;BME280;14279;50.010;8.260;2022-09-09T01:52:13;99920.22;;;17.25;78.61
26657;BME280;14279;50.010;8.260;2022-09-09T01:54:38;99922.59;;;17.28;78.22
26657;BME280;14279;50.010;8.260;2022-09-09T01:57:44;99916.25;;;17.31;77.87
26657;BME280;14279;50.010;8.260;2022-09-09T02:00:15;99923.72;;;17.15;78.08
26657;BME280;14279;50.010;8.260;2022-09-09T02:05:59;99914.88;;;17.16;78.44
26657;BME280;14279;50.010;8.260;2022-09-09T02:08:48;99925.19;;;17.07;79.22
26657;BME280;14279;50.010;8.260;2022-09-09T02:11:16;99931.53;;;17.05;80.23
26657;BME280;14279;50.010;8.260;2022-09-09T02:13:47;99929.72;;;17.05;80.07
26657;BME280;14279;50.010;8.260;2022-09-09T02:19:18;99937.59;;;17.17;78.63
26657;BME280;14279;50.010;8.260;2022-09-09T02:21:44;99928.59;;;17.19;78.64
26657;BME280;14279;50.010;8.260;2022-09-09T02:24:10;99936.03;;;17.14;78.42
26657;BME280;14279;50.010;8.260;2022-09-09T02:26:40;99930.59;;;17.27;78.51
26657;BME280;14279;50.010;8.260;2022-09-09T02:29:15;99927.78;;;17.19;78.81
26657;BME280;14279;50.010;8.260;2022-09-09T02:31:44;99924.19;;;17.20;78.87
26657;BME280;14279;50.010;8.260;2022-09-09T02:34:12;99925.97;;;17.19;79.41
26657;BME280;14279;50.010;8.260;2022-09-09T02:36:40;99927.41;;;17.23;79.16
26657;BME280;14279;50.010;8.260;2022-09-09T02:39:10;99927.66;;;17.20;78.80
26657;BME280;14279;50.010;8.260;2022-09-09T02:41:37;99929.47;;;17.20;78.89
26657;BME280;14279;50.010;8.260;2022-09-09T02:44:12;99929.06;;;17.24;81.08
26657;BME280;14279;50.010;8.260;2022-09-09T02:49:43;99925.56;;;17.03;83.37
26657;BME280;14279;50.010;8.260;2022-09-09T02:52:15;99916.72;;;17.04;83.78
26657;BME280;14279;50.010;8.260;2022-09-09T02:54:42;99911.94;;;16.97;83.93
26657;BME280;14279;50.010;8.260;2022-09-09T02:57:17;99910.47;;;16.93;84.66
26657;BME280;14279;50.010;8.260;2022-09-09T02:59:44;99915.53;;;16.96;84.80
26657;BME280;14279;50.010;8.260;2022-09-09T03:02:10;99916.38;;;16.97;84.56
26657;BME280;14279;50.010;8.260;2022-09-09T03:04:37;99920.88;;;17.06;84.51
26657;BME280;14279;50.010;8.260;2022-09-09T03:07:02;99918.56;;;17.13;84.36
26657;BME280;14279;50.010;8.260;2022-09-09T03:09:29;99920.16;;;17.04;84.91
26657;BME280;14279;50.010;8.260;2022-09-09T03:11:54;99907.47;;;17.09;84.00
26657;BME280;14279;50.010;8.260;2022-09-09T03:14:20;99913.94;;;17.05;82.26
26657;BME280;14279;50.010;8.260;2022-09-09T03:16:49;99923.72;;;17.15;81.61
26657;BME280;14279;50.010;8.260;2022-09-09T03:19:15;99919.75;;;17.20;80.58
26657;BME280;14279;50.010;8.260;2022-09-09T03:21:40;99920.47;;;17.22;81.23
26657;BME280;14279;50.010;8.260;2022-09-09T03:24:05;99926.81;;;17.20;80.65
26657;BME280;14279;50.010;8.260;2022-09-09T03:26:31;99931.94;;;17.21;80.83
26657;BME280;14279;50.010;8.260;2022-09-09T03:28:57;99923.09;;;17.22;80.58
26657;BME280;14279;50.010;8.260;2022-09-09T03:31:22;99934.34;;;17.13;81.45
26657;BME280;14279;50.010;8.260;2022-09-09T03:33:47;99930.19;;;17.10;81.44
26657;BME280;14279;50.010;8.260;2022-09-09T03:36:14;99936.66;;;17.06;81.70
26657;BME280;14279;50.010;8.260;2022-09-09T03:38:40;99934.72;;;17.08;82.31
26657;BME280;14279;50.010;8.260;2022-09-09T03:41:05;99936.66;;;17.06;81.94
26657;BME280;14279;50.010;8.260;2022-09-09T03:43:30;99931.53;;;17.05;82.18
26657;BME280;14279;50.010;8.260;2022-09-09T03:45:56;99932.25;;;17.07;82.44
26657;BME280;14279;50.010;8.260;2022-09-09T03:48:24;99935.91;;;17.16;81.41
26657;BME280;14279;50.010;8.260;2022-09-09T03:50:52;99935.19;;;17.13;81.80
26657;BME280;14279;50.010;8.260;2022-09-09T03:53:19;99930.53;;;17.17;81.51
26657;BME280;14279;50.010;8.260;2022-09-09T03:55:46;99930.28;;;17.20;81.52
26657;BME280;14279;50.010;8.260;2022-09-09T03:58:16;99935.91;;;17.16;81.44
26657;BME280;14279;50.010;8.260;2022-09-09T04:00:43;99932.34;;;17.17;81.54
26657;BME280;14279;50.010;8.260;2022-09-09T04:03:17;99921.97;;;17.04;80.62
26657;BME280;14279;50.010;8.260;2022-09-09T04:05:42;99914.66;;;17.07;80.29
26657;BME280;14279;50.010;8.260;2022-09-09T04:08:08;99907.34;;;17.11;79.28
26657;BME280;14279;50.010;8.260;2022-09-09T04:10:33;99910.09;;;17.09;79.39
26657;BME280;14279;50.010;8.260;2022-09-09T04:13:01;99911.53;;;17.13;79.49
26657;BME280;14279;50.010;8.260;2022-09-09T04:15:26;99916.81;;;17.02;79.78
26657;BME280;14279;50.010;8.260;2022-09-09T04:17:52;99909.50;;;16.94;80.08
26657;BME280;14279;50.010;8.260;2022-09-09T04:20:17;99909.16;;;16.99;79.15
26657;BME280;14279;50.010;8.260;2022-09-09T04:22:42;99908.81;;;17.04;79.46
26657;BME280;14279;50.010;8.260;2022-09-09T04:25:08;99909.41;;;17.07;79.18
26657;BME280;14279;50.010;8.260;2022-09-09T04:27:33;99902.59;;;17.05;79.45
26657;BME280;14279;50.010;8.260;2022-09-09T04:29:58;99913.34;;;16.90;79.42
26657;BME280;14279;50.010;8.260;2022-09-09T04:32:24;99905.25;;;16.82;80.58
26657;BME280;14279;50.010;8.260;2022-09-09T04:34:52;99909.88;;;17.01;79.59
26657;BME280;14279;50.010;8.260;2022-09-09T04:37:17;99916.09;;;17.00;79.18
26657;BME280;14279;50.010;8.260;2022-09-09T04:39:42;99914.91;;;16.93;79.24
26657;BME280;14279;50.010;8.260;2022-09-09T04:42:08;99915.28;;;17.00;79.02
26657;BME280;14279;50.010;8.260;2022-09-09T04:44:33;99916.38;;;16.97;79.05
26657;BME280;14279;50.010;8.260;2022-09-09T04:46:58;99919.19;;;17.05;79.49
26657;BME280;14279;50.010;8.260;2022-09-09T04:52:34;99929.97;;;16.91;80.32
26657;BME280;14279;50.010;8.260;2022-09-09T04:55:00;99934.66;;;16.76;80.29
26657;BME280;14279;50.010;8.260;2022-09-09T04:57:26;99939.19;;;16.62;80.98
26657;BME280;14279;50.010;8.260;2022-09-09T04:59:51;99932.63;;;16.68;80.76
26657;BME280;14279;50.010;8.260;2022-09-09T05:02:16;99931.69;;;16.69;80.54
26657;BME280;14279;50.010;8.260;2022-09-09T05:04:41;99935.38;;;16.66;80.98
26657;BME280;14279;50.010;8.260;2022-09-09T05:07:06;99924.97;;;16.76;80.16
26657;BME280;14279;50.010;8.260;2022-09-09T05:09:32;99932.13;;;16.74;80.25
26657;BME280;14279;50.010;8.260;2022-09-09T05:11:57;99933.44;;;16.68;80.29
26657;BME280;14279;50.010;8.260;2022-09-09T05:14:23;99940.84;;;16.63;80.83
26657;BME280;14279;50.010;8.260;2022-09-09T05:16:48;99943.38;;;16.42;81.00
26657;BME280;14279;50.010;8.260;2022-09-09T05:19:14;99943.63;;;16.39;81.49
26657;BME280;14279;50.010;8.260;2022-09-09T05:21:40;99947.34;;;16.36;81.57
26657;BME280;14279;50.010;8.260;2022-09-09T05:24:06;99957.47;;;16.52;80.31
26657;BME280;14279;50.010;8.260;2022-09-09T05:26:31;99950.53;;;16.51;80.65
26657;BME280;14279;50.010;8.260;2022-09-09T05:28:57;99956.16;;;16.58;80.47
26657;BME280;14279;50.010;8.260;2022-09-09T05:31:24;99958.31;;;16.53;80.80
26657;BME280;14279;50.010;8.260;2022-09-09T05:33:52;99959.84;;;16.56;80.44
26657;BME280;14279;50.010;8.260;2022-09-09T05:36:20;99960.47;;;16.59;80.36
26657;BME280;14279;50.010;8.260;2022-09-09T05:38:46;99964.16;;;16.68;79.75
26657;BME280;14279;50.010;8.260;2022-09-09T05:41:12;99954.47;;;16.80;79.34
26657;BME280;14279;50.010;8.260;2022-09-09T05:43:38;99961.84;;;16.86;79.59
26657;BME280;14279;50.010;8.260;2022-09-09T05:46:09;99961.63;;;16.89;79.08
26657;BME280;14279;50.010;8.260;2022-09-09T05:48:43;99970.94;;;16.93;78.83
26657;BME280;14279;50.010;8.260;2022-09-09T05:51:14;99968.69;;;16.89;78.98
26657;BME280;14279;50.010;8.260;2022-09-09T05:53:43;99967.72;;;17.01;78.53
26657;BME280;14279;50.010;8.260;2022-09-09T05:56:11;99971.69;;;16.95;77.67
26657;BME280;14279;50.010;8.260;2022-09-09T05:58:37;99974.41;;;17.05;77.65
26657;BME280;14279;50.010;8.260;2022-09-09T06:01:09;99975.63;;;17.12;77.60
26657;BME280;14279;50.010;8.260;2022-09-09T06:03:36;99972.84;;;17.25;77.05
26657;BME280;14279;50.010;8.260;2022-09-09T06:06:04;99970.94;;;17.16;77.46
26657;BME280;14279;50.010;8.260;2022-09-09T06:08:34;99980.59;;;17.27;76.41
26657;BME280;14279;50.010;8.260;2022-09-09T06:11:04;99986.78;;;17.37;76.08
26657;BME280;14279;50.010;8.260;2022-09-09T06:13:30;99978.03;;;17.48;76.05
26657;BME280;14279;50.010;8.260;2022-09-09T06:15:56;99977.44;;;17.45;75.79
26657;BME280;14279;50.010;8.260;2022-09-09T06:18:21;99979.09;;;17.46;75.33
26657;BME280;14279;50.010;8.260;2022-09-09T06:20:56;99979.44;;;17.52;75.39
26657;BME280;14279;50.010;8.260;2022-09-09T06:23:21;99981.44;;;17.60;75.50
26657;BME280;14279;50.010;8.260;2022-09-09T06:25:47;99979.38;;;17.64;74.96
26657;BME280;14279;50.010;8.260;2022-09-09T06:28:14;99985.38;;;17.66;75.13
26657;BME280;14279;50.010;8.260;2022-09-09T06:30:39;99986.47;;;17.84;74.62
26657;BME280;14279;50.010;8.260;2022-09-09T06:33:17;99981.16;;;17.96;74.27
26657;BME280;14279;50.010;8.260;2022-09-09T06:35:51;99989.78;;;17.98;74.46
26657;BME280;14279;50.010;8.260;2022-09-09T06:38:18;99983.97;;;17.83;74.87
26657;BME280;14279;50.010;8.260;2022-09-09T06:40:52;99979.22;;;17.77;75.32
26657;BME280;14279;50.010;8.260;2022-09-09T06:43:19;99983.44;;;17.68;75.84
26657;BME280;14279;50.010;8.260;2022-09-09T06:45:55;99983.63;;;17.55;76.22
26657;BME280;14279;50.010;8.260;2022-09-09T06:48:21;99977.06;;;17.49;76.53
26657;BME280;14279;50.010;8.260;2022-09-09T06:50:46;99972.44;;;17.63;76.24
26657;BME280;14279;50.010;8.260;2022-09-09T06:53:12;99970.91;;;17.60;76.13
26657;BME280;14279;50.010;8.260;2022-09-09T06:55:37;99970.03;;;17.71;75.41
26657;BME280;14279;50.010;8.260;2022-09-09T06:58:08;99973.06;;;17.66;76.05
26657;BME280;14279;50.010;8.260;2022-09-09T07:00:33;99969.31;;;17.69;75.87
26657;BME280;14279;50.010;8.260;2022-09-09T07:02:58;99979.66;;;17.82;75.80
26657;BME280;14279;50.010;8.260;2022-09-09T07:05:23;99983.75;;;17.75;75.35
26657;BME280;14279;50.010;8.260;2022-09-09T07:07:51;99975.78;;;17.65;76.19
26657;BME280;14279;50.010;8.260;2022-09-09T07:10:16;99976.91;;;17.62;75.99
26657;BME280;14279;50.010;8.260;2022-09-09T07:12:42;99972.09;;;17.67;76.28
26657;BME280;14279;50.010;8.260;2022-09-09T07:15:07;99982.72;;;17.66;76.11
26657;BME280;14279;50.010;8.260;2022-09-09T07:17:33;99981.56;;;17.91;75.24
26657;BME280;14279;50.010;8.260;2022-09-09T07:20:01;99973.59;;;18.02;74.76
26657;BME280;14279;50.010;8.260;2022-09-09T07:22:28;99969.34;;;18.11;74.43
26657;BME280;14279;50.010;8.260;2022-09-09T07:24:54;99975.72;;;18.09;74.37
26657;BME280;14279;50.010;8.260;2022-09-09T07:27:20;99978.16;;;18.22;74.20
26657;BME280;14279;50.010;8.260;2022-09-09T07:29:46;99984.41;;;18.21;74.17
26657;BME280;14279;50.010;8.260;2022-09-09T07:32:11;99984.66;;;18.39;73.40
26657;BME280;14279;50.010;8.260;2022-09-09T07:34:36;99989.59;;;18.11;73.95
26657;BME280;14279;50.010;8.260;2022-09-09T07:37:02;99989.66;;;18.21;73.83
26657;BME280;14279;50.010;8.260;2022-09-09T07:39:27;99995.00;;;18.30;73.31
26657;BME280;14279;50.010;8.260;2022-09-09T07:41:53;100004.38;;;18.44;72.87
26657;BME280;14279;50.010;8.260;2022-09-09T07:44:21;99996.28;;;18.67;71.94
26657;BME280;14279;50.010;8.260;2022-09-09T07:46:47;99998.16;;;18.55;71.75
26657;BME280;14279;50.010;8.260;2022-09-09T07:49:13;99992.72;;;18.47;72.48
26657;BME280;14279;50.010;8.260;2022-09-09T07:51:41;100002.13;;;18.71;71.47
26657;BME280;14279;50.010;8.260;2022-09-09T07:54:09;100006.88;;;19.08;69.91
26657;BME280;14279;50.010;8.260;2022-09-09T07:56:35;100012.66;;;18.71;70.36
26657;BME280;14279;50.010;8.260;2022-09-09T07:59:02;100007.31;;;19.13;69.31
26657;BME280;14279;50.010;8.260;2022-09-09T08:01:32;100000.75;;;19.07;69.45
26657;BME280;14279;50.010;8.260;2022-09-09T08:04:00;100007.03;;;18.85;69.41
26657;BME280;14279;50.010;8.260;2022-09-09T08:06:31;100001.84;;;19.05;68.70
26657;BME280;14279;50.010;8.260;2022-09-09T08:08:58;100005.41;;;18.94;68.62
26657;BME280;14279;50.010;8.260;2022-09-09T08:11:26;100006.13;;;18.96;68.47
26657;BME280;14279;50.010;8.260;2022-09-09T08:13:52;100010.66;;;18.84;68.79
26657;BME280;14279;50.010;8.260;2022-09-09T08:16:21;100010.56;;;18.96;68.51
26657;BME280;14279;50.010;8.260;2022-09-09T08:18:47;100003.00;;;18.81;68.59
26657;BME280;14279;50.010;8.260;2022-09-09T08:21:19;100005.72;;;18.70;68.57
26657;BME280;14279;50.010;8.260;2022-09-09T08:23:45;100005.38;;;18.84;67.69
26657;BME280;14279;50.010;8.260;2022-09-09T08:26:17;100011.25;;;18.67;68.38
26657;BME280;14279;50.010;8.260;2022-09-09T08:28:44;100010.88;;;18.71;68.52
26657;BME280;14279;50.010;8.260;2022-09-09T08:31:16;100014.31;;;18.72;68.67
26657;BME280;14279;50.010;8.260;2022-09-09T08:33:42;100011.47;;;18.85;68.50
26657;BME280;14279;50.010;8.260;2022-09-09T08:36:12;100010.84;;;19.02;67.99
26657;BME280;14279;50.010;8.260;2022-09-09T08:38:41;100013.66;;;19.11;67.28
26657;BME280;14279;50.010;8.260;2022-09-09T08:41:37;100024.03;;;19.02;67.31
26657;BME280;14279;50.010;8.260;2022-09-09T08:49:41;100008.31;;;19.32;66.33
26657;BME280;14279;50.010;8.260;2022-09-09T08:57:50;100012.34;;;19.46;63.06
26657;BME280;14279;50.010;8.260;2022-09-09T09:00:17;100017.38;;;19.68;62.64
26657;BME280;14279;50.010;8.260;2022-09-09T09:03:02;100015.28;;;19.82;62.39
26657;BME280;14279;50.010;8.260;2022-09-09T09:06:08;100013.78;;;19.89;61.23
26657;BME280;14279;50.010;8.260;2022-09-09T09:08:56;100006.50;;;19.52;59.77
26657;BME280;14279;50.010;8.260;2022-09-09T09:11:24;100016.72;;;19.16;61.07
26657;BME280;14279;50.010;8.260;2022-09-09T09:14:02;100019.81;;;19.21;61.81
26657;BME280;14279;50.010;8.260;2022-09-09T09:17:00;100004.16;;;19.49;61.14
26657;BME280;14279;50.010;8.260;2022-09-09T09:19:28;100013.59;;;19.61;61.47
26657;BME280;14279;50.010;8.260;2022-09-09T09:22:10;100008.19;;;19.82;60.72
26657;BME280;14279;50.010;8.260;2022-09-09T09:27:15;99997.31;;;20.25;59.57
26657;BME280;14279;50.010;8.260;2022-09-09T09:29:43;100013.34;;;19.74;59.83
26657;BME280;14279;50.010;8.260;2022-09-09T09:32:12;100010.28;;;19.89;58.85
26657;BME280;14279;50.010;8.260;2022-09-09T09:34:39;100018.59;;;20.13;58.44
26657;BME280;14279;50.010;8.260;2022-09-09T09:37:20;100009.59;;;20.06;58.87
26657;BME280;14279;50.010;8.260;2022-09-09T09:39:48;100015.41;;;20.20;58.76
26657;BME280;14279;50.010;8.260;2022-09-09T09:42:17;100011.72;;;20.40;58.56
26657;BME280;14279;50.010;8.260;2022-09-09T09:44:42;100005.41;;;19.84;60.33
26657;BME280;14279;50.010;8.260;2022-09-09T09:49:38;100001.81;;;19.65;61.19
26657;BME280;14279;50.010;8.260;2022-09-09T09:52:05;100008.03;;;19.84;60.66
26657;BME280;14279;50.010;8.260;2022-09-09T09:54:36;100012.78;;;19.80;60.61
26657;BME280;14279;50.010;8.260;2022-09-09T09:57:13;100009.84;;;20.23;60.37
26657;BME280;14279;50.010;8.260;2022-09-09T09:59:40;100001.81;;;19.95;59.16
26657;BME280;14279;50.010;8.260;2022-09-09T10:04:36;100002.91;;;20.02;58.61
26657;BME280;14279;50.010;8.260;2022-09-09T10:07:17;100006.47;;;20.31;57.23
26657;BME280;14279;50.010;8.260;2022-09-09T10:09:43;100011.97;;;20.47;56.38
26657;BME280;14279;50.010;8.260;2022-09-09T10:12:19;99999.53;;;20.30;56.20
26657;BME280;14279;50.010;8.260;2022-09-09T10:15:54;100004.97;;;19.79;56.64
26657;BME280;14279;50.010;8.260;2022-09-09T10:26:59;99991.31;;;20.33;56.44
26657;BME280;14279;50.010;8.260;2022-09-09T10:29:49;99985.88;;;20.44;55.41
26657;BME280;14279;50.010;8.260;2022-09-09T10:37:53;99976.56;;;21.06;52.68
26657;BME280;14279;50.010;8.260;2022-09-09T10:40:34;99969.28;;;21.08;52.08
26657;BME280;14279;50.010;8.260;2022-09-09T10:46:15;99961.53;;;21.24;48.17
26657;BME280;14279;50.010;8.260;2022-09-09T10:49:02;100004.97;;;21.04;48.93
26657;BME280;14279;50.010;8.260;2022-09-09T10:54:31;99979.22;;;21.42;49.51
26657;BME280;14279;50.010;8.260;2022-09-09T10:57:07;99968.72;;;21.50;48.67
26657;BME280;14279;50.010;8.260;2022-09-09T10:59:40;99976.59;;;20.96;49.88
26657;BME280;14279;50.010;8.260;2022-09-09T11:02:30;99972.81;;;21.26;49.95
26657;BME280;14279;50.010;8.260;2022-09-09T11:05:06;99977.47;;;21.14;50.59
26657;BME280;14279;50.010;8.260;2022-09-09T11:08:05;99980.44;;;21.47;49.93
26657;BME280;14279;50.010;8.260;2022-09-09T11:13:15;99958.56;;;21.82;48.35
26657;BME280;14279;50.010;8.260;2022-09-09T11:15:46;99965.31;;;22.20;46.90
26657;BME280;14279;50.010;8.260;2022-09-09T11:18:21;99981.72;;;21.98;47.25
26657;BME280;14279;50.010;8.260;2022-09-09T11:20:50;99965.97;;;21.96;47.12
26657;BME280;14279;50.010;8.260;2022-09-09T11:23:34;99971.34;;;21.86;48.03
26657;BME280;14279;50.010;8.260;2022-09-09T11:26:05;99966.75;;;22.15;47.87
26657;BME280;14279;50.010;8.260;2022-09-09T11:34:08;99949.75;;;21.99;48.27
26657;BME280;14279;50.010;8.260;2022-09-09T11:42:06;99962.22;;;21.62;49.23
26657;BME280;14279;50.010;8.260;2022-09-09T11:44:32;99960.16;;;21.56;49.72
26657;BME280;14279;50.010;8.260;2022-09-09T11:46:57;99955.34;;;21.70;49.60
26657;BME280;14279;50.010;8.260;2022-09-09T11:49:28;99959.50;;;21.36;49.77
26657;BME280;14279;50.010;8.260;2022-09-09T11:51:55;99973.09;;;21.23;50.38
26657;BME280;14279;50.010;8.260;2022-09-09T11:54:30;99971.88;;;21.17;50.93
26657;BME280;14279;50.010;8.260;2022-09-09T11:56:56;99967.88;;;21.31;50.20
26657;BME280;14279;50.010;8.260;2022-09-09T11:59:23;99974.22;;;21.21;49.29
26657;BME280;14279;50.010;8.260;2022-09-09T12:01:55;99973.31;;;21.30;49.55
26657;BME280;14279;50.010;8.260;2022-09-09T12:06:51;99971.38;;;21.50;48.88
26657;BME280;14279;50.010;8.260;2022-09-09T12:09:22;99989.44;;;21.37;49.70
26657;BME280;14279;50.010;8.260;2022-09-09T12:11:51;99992.28;;;21.07;51.51
26657;BME280;14279;50.010;8.260;2022-09-09T12:14:22;99987.84;;;20.70;53.30
26657;BME280;14279;50.010;8.260;2022-09-09T12:16:48;99991.34;;;20.98;52.83
26657;BME280;14279;50.010;8.260;2022-09-09T12:19:19;99974.16;;;20.84;53.78
26657;BME280;14279;50.010;8.260;2022-09-09T12:21:51;99993.16;;;20.70;53.81
26657;BME280;14279;50.010;8.260;2022-09-09T12:24:30;99980.44;;;20.73;53.28
26657;BME280;14279;50.010;8.260;2022-09-09T12:27:05;99989.06;;;20.85;53.64
26657;BME280;14279;50.010;8.260;2022-09-09T12:32:10;99976.50;;;20.50;55.17
26657;BME280;14279;50.010;8.260;2022-09-09T12:34:41;99989.63;;;20.32;56.20
26657;BME280;14279;50.010;8.260;2022-09-09T12:42:47;99977.44;;;20.21;58.26
26657;BME280;14279;50.010;8.260;2022-09-09T12:45:18;99966.16;;;20.19;58.53
26657;BME280;14279;50.010;8.260;2022-09-09T12:47:56;99966.34;;;19.68;59.77
26657;BME280;14279;50.010;8.260;2022-09-09T12:50:35;99974.41;;;19.86;59.46
26657;BME280;14279;50.010;8.260;2022-09-09T12:55:54;99971.59;;;20.17;57.67
26657;BME280;14279;50.010;8.260;2022-09-09T12:58:21;99967.72;;;20.21;56.97
26657;BME280;14279;50.010;8.260;2022-09-09T13:00:51;99970.34;;;20.21;56.06
26657;BME280;14279;50.010;8.260;2022-09-09T13:03:19;99966.03;;;20.20;55.10
26657;BME280;14279;50.010;8.260;2022-09-09T13:05:45;99956.97;;;20.23;55.37
26657;BME280;14279;50.010;8.260;2022-09-09T13:08:13;99940.78;;;20.73;53.26
26657;BME280;14279;50.010;8.260;2022-09-09T13:10:54;99967.34;;;20.72;53.93
26657;BME280;14279;50.010;8.260;2022-09-09T13:13:27;99961.38;;;20.80;52.83
26657;BME280;14279;50.010;8.260;2022-09-09T13:15:57;99952.91;;;21.22;52.32
26657;BME280;14279;50.010;8.260;2022-09-09T13:18:27;99969.91;;;21.20;50.97
26657;BME280;14279;50.010;8.260;2022-09-09T13:20:53;99948.28;;;21.24;51.33
26657;BME280;14279;50.010;8.260;2022-09-09T13:23:20;99934.13;;;21.33;50.86
26657;BME280;14279;50.010;8.260;2022-09-09T13:29:17;99928.84;;;21.33;50.25
26657;BME280;14279;50.010;8.260;2022-09-09T13:31:43;99928.38;;;21.74;49.54
26657;BME280;14279;50.010;8.260;2022-09-09T13:34:26;99941.09;;;21.35;50.40
26657;BME280;14279;50.010;8.260;2022-09-09T13:37:26;99931.25;;;21.09;51.52
26657;BME280;14279;50.010;8.260;2022-09-09T13:39:53;99952.16;;;20.56;52.16
26657;BME280;14279;50.010;8.260;2022-09-09T13:42:39;99956.53;;;20.65;52.20
26657;BME280;14279;50.010;8.260;2022-09-09T13:45:17;99961.06;;;20.55;52.41
26657;BME280;14279;50.010;8.260;2022-09-09T13:47:45;99955.78;;;20.73;52.13
26657;BME280;14279;50.010;8.260;2022-09-09T13:50:23;99951.28;;;20.55;52.53
26657;BME280;14279;50.010;8.260;2022-09-09T13:52:54;99958.03;;;20.40;53.95
26657;BME280;14279;50.010;8.260;2022-09-09T13:55:26;99958.13;;;20.20;54.75
26657;BME280;14279;50.010;8.260;2022-09-09T13:58:14;99961.38;;;20.42;54.30
26657;BME280;14279;50.010;8.260;2022-09-09T14:01:08;99963.41;;;20.20;55.48
26657;BME280;14279;50.010;8.260;2022-09-09T14:03:40;99966.31;;;20.17;55.79
26657;BME280;14279;50.010;8.260;2022-09-09T14:06:14;99968.50;;;20.32;55.98
26657;BME280;14279;50.010;8.260;2022-09-09T14:08:44;99966.28;;;20.27;56.39
26657;BME280;14279;50.010;8.260;2022-09-09T14:11:12;99967.88;;;20.00;58.27
26657;BME280;14279;50.010;8.260;2022-09-09T14:13:39;99971.91;;;19.75;60.45
26657;BME280;14279;50.010;8.260;2022-09-09T14:16:04;99976.91;;;19.68;61.61
26657;BME280;14279;50.010;8.260;2022-09-09T14:18:30;99978.31;;;19.62;62.34
26657;BME280;14279;50.010;8.260;2022-09-09T14:20:56;99975.94;;;19.69;61.91
26657;BME280;14279;50.010;8.260;2022-09-09T14:23:23;99982.47;;;20.04;61.08
26657;BME280;14279;50.010;8.260;2022-09-09T14:25:49;99987.59;;;20.06;61.20
26657;BME280;14279;50.010;8.260;2022-09-09T14:28:15;99980.56;;;19.96;62.28
26657;BME280;14279;50.010;8.260;2022-09-09T14:30:41;99971.72;;;20.16;61.78
26657;BME280;14279;50.010;8.260;2022-09-09T14:33:09;99969.13;;;19.86;62.05
26657;BME280;14279;50.010;8.260;2022-09-09T14:35:35;99967.88;;;20.00;61.72
26657;BME280;14279;50.010;8.260;2022-09-09T14:38:02;99969.53;;;20.11;61.34
26657;BME280;14279;50.010;8.260;2022-09-09T14:40:30;99976.38;;;19.94;62.32
26657;BME280;14279;50.010;8.260;2022-09-09T14:42:56;99967.34;;;19.96;62.90
26657;BME280;14279;50.010;8.260;2022-09-09T14:45:25;99973.03;;;19.92;63.47
26657;BME280;14279;50.010;8.260;2022-09-09T14:47:51;99966.34;;;19.88;64.20
26657;BME280;14279;50.010;8.260;2022-09-09T14:50:18;99967.34;;;19.96;65.17
26657;BME280;14279;50.010;8.260;2022-09-09T14:52:44;99961.22;;;19.96;67.34
26657;BME280;14279;50.010;8.260;2022-09-09T14:55:09;99957.69;;;20.15;67.34